sensor_id;sensor_type;location;lat;lon;timestamp;pressure;altitude;pressure_sealevel;temperature;humidity
75538;BME280;64121;48.666;8.114;2023-03-01T00:01:34;100838.56;;;-1.70;80.24
75538;BME280;64121;48.666;8.114;2023-03-01T00:04:00;100841.03;;;-1.69;80.05
75538;BME280;64121;48.666;8.114;2023-03-01T00:06:26;100839.22;;;-1.80;80.55
75538;BME280;64121;48.666;8.114;2023-03-01T00:08:52;100848.22;;;-1.79;80.91
75538;BME280;64121;48.666;8.114;2023-03-01T00:11:20;100847.47;;;-1.75;80.52
75538;BME280;64121;48.666;8.114;2023-03-01T00:13:48;100844.44;;;-1.78;80.74
75538;BME280;64121;48.666;8.114;2023-03-01T00:16:15;100835.91;;;-1.82;81.06
75538;BME280;64121;48.666;8.114;2023-03-01T00:18:41;100834.00;;;-1.81;80.66
75538;BME280;64121;48.666;8.114;2023-03-01T00:21:06;100835.81;;;-1.87;81.08
75538;BME280;64121;48.666;8.114;2023-03-01T00:23:33;100836.50;;;-1.80;80.83
75538;BME280;64121;48.666;8.114;2023-03-01T00:25:59;100838.81;;;-1.72;80.39
75538;BME280;64121;48.666;8.114;2023-03-01T00:28:26;100838.56;;;-1.70;80.32
75538;BME280;64121;48.666;8.114;2023-03-01T00:30:51;100831.56;;;-1.66;80.26
75538;BME280;64121;48.666;8.114;2023-03-01T00:33:17;100830.53;;;-1.77;79.97
75538;BME280;64121;48.666;8.114;2023-03-01T00:35:42;100840.03;;;-1.79;80.03
75538;BME280;64121;48.666;8.114;2023-03-01T00:38:08;100833.69;;;-1.85;80.56
75538;BME280;64121;48.666;8.114;2023-03-01T00:40:35;100842.81;;;-1.91;80.85
75538;BME280;64121;48.666;8.114;2023-03-01T00:43:01;100838.78;;;-1.89;81.00
75538;BME280;64121;48.666;8.114;2023-03-01T00:45:27;100837.13;;;-1.90;80.97
75538;BME280;64121;48.666;8.114;2023-03-01T00:47:53;100829.53;;;-1.88;80.77
75538;BME280;64121;48.666;8.114;2023-03-01T00:50:19;100835.81;;;-1.87;80.95
75538;BME280;64121;48.666;8.114;2023-03-01T00:52:45;100828.13;;;-1.90;80.84
75538;BME280;64121;48.666;8.114;2023-03-01T00:55:11;100830.25;;;-1.92;81.49
75538;BME280;64121;48.666;8.114;2023-03-01T00:57:37;100828.53;;;-1.98;80.66
75538;BME280;64121;48.666;8.114;2023-03-01T01:00:04;100828.91;;;-2.06;81.11
75538;BME280;64121;48.666;8.114;2023-03-01T01:02:32;100826.88;;;-1.99;81.61
75538;BME280;64121;48.666;8.114;2023-03-01T01:04:57;100827.94;;;-2.00;81.70
75538;BME280;64121;48.666;8.114;2023-03-01T01:07:23;100818.44;;;-1.98;81.64
75538;BME280;64121;48.666;8.114;2023-03-01T01:09:48;100816.50;;;-1.86;81.14
75538;BME280;64121;48.666;8.114;2023-03-01T01:12:13;100822.34;;;-1.94;81.33
75538;BME280;64121;48.666;8.114;2023-03-01T01:14:39;100814.66;;;-1.97;81.18
75538;BME280;64121;48.666;8.114;2023-03-01T01:17:04;100821.75;;;-1.96;81.31
75538;BME280;64121;48.666;8.114;2023-03-01T01:19:31;100815.72;;;-1.98;81.25
75538;BME280;64121;48.666;8.114;2023-03-01T01:21:56;100815.47;;;-1.96;81.35
75538;BME280;64121;48.666;8.114;2023-03-01T01:24:22;100808.53;;;-2.04;81.07
75538;BME280;64121;48.666;8.114;2023-03-01T01:26:47;100799.66;;;-2.11;81.42
75538;BME280;64121;48.666;8.114;2023-03-01T01:29:13;100804.13;;;-2.05;81.69
75538;BME280;64121;48.666;8.114;2023-03-01T01:31:40;100804.81;;;-1.98;81.25
75538;BME280;64121;48.666;8.114;2023-03-01T01:34:08;100798.22;;;-2.02;81.19
75538;BME280;64121;48.666;8.114;2023-03-01T01:36:38;100801.25;;;-1.98;81.19
75538;BME280;64121;48.666;8.114;2023-03-01T01:39:04;100793.91;;;-1.98;81.14
75538;BME280;64121;48.666;8.114;2023-03-01T01:41:30;100793.91;;;-1.98;81.12
75538;BME280;64121;48.666;8.114;2023-03-01T01:44:16;100794.81;;;-1.92;81.06
75538;BME280;64121;48.666;8.114;2023-03-01T01:46:43;100792.59;;;-1.95;80.83
75538;BME280;64121;48.666;8.114;2023-03-01T01:49:17;100802.34;;;-1.99;81.17
75538;BME280;64121;48.666;8.114;2023-03-01T01:51:47;100792.81;;;-2.14;81.11
75538;BME280;64121;48.666;8.114;2023-03-01T01:54:16;100788.91;;;-2.18;81.41
75538;BME280;64121;48.666;8.114;2023-03-01T01:56:48;100790.50;;;-2.22;81.55
75538;BME280;64121;48.666;8.114;2023-03-01T01:59:15;100788.47;;;-2.26;81.83
75538;BME280;64121;48.666;8.114;2023-03-01T02:01:41;100786.72;;;-2.32;82.04
75538;BME280;64121;48.666;8.114;2023-03-01T02:04:07;100785.41;;;-2.30;82.13
75538;BME280;64121;48.666;8.114;2023-03-01T02:06:36;100782.69;;;-2.30;82.13
75538;BME280;64121;48.666;8.114;2023-03-01T02:09:06;100770.63;;;-2.34;82.72
75538;BME280;64121;48.666;8.114;2023-03-01T02:11:33;100770.53;;;-2.39;82.11
75538;BME280;64121;48.666;8.114;2023-03-01T02:13:58;100770.19;;;-2.42;82.49
75538;BME280;64121;48.666;8.114;2023-03-01T02:16:25;100774.50;;;-2.30;82.73
75538;BME280;64121;48.666;8.114;2023-03-01T02:18:51;100767.66;;;-2.32;82.27
75538;BME280;64121;48.666;8.114;2023-03-01T02:21:38;100772.19;;;-2.38;82.26
75538;BME280;64121;48.666;8.114;2023-03-01T02:26:56;100760.97;;;-2.41;82.93
75538;BME280;64121;48.666;8.114;2023-03-01T02:29:24;100761.63;;;-2.34;83.03
75538;BME280;64121;48.666;8.114;2023-03-01T02:31:51;100762.47;;;-2.34;82.79
75538;BME280;64121;48.666;8.114;2023-03-01T02:34:20;100763.84;;;-2.31;82.73
75538;BME280;64121;48.666;8.114;2023-03-01T02:36:48;100767.81;;;-2.39;82.55
75538;BME280;64121;48.666;8.114;2023-03-01T02:39:17;100764.41;;;-2.46;82.48
75538;BME280;64121;48.666;8.114;2023-03-01T02:41:46;100750.94;;;-2.53;83.15
75538;BME280;64121;48.666;8.114;2023-03-01T02:44:13;100752.25;;;-2.55;83.56
75538;BME280;64121;48.666;8.114;2023-03-01T02:46:44;100739.06;;;-2.47;83.61
75538;BME280;64121;48.666;8.114;2023-03-01T02:49:23;100748.47;;;-2.54;83.22
75538;BME280;64121;48.666;8.114;2023-03-01T02:52:17;100737.47;;;-2.59;83.34
75538;BME280;64121;48.666;8.114;2023-03-01T02:54:49;100739.75;;;-2.68;83.60
75538;BME280;64121;48.666;8.114;2023-03-01T02:57:18;100733.88;;;-2.77;83.85
75538;BME280;64121;48.666;8.114;2023-03-01T02:59:44;100729.09;;;-2.69;84.62
75538;BME280;64121;48.666;8.114;2023-03-01T03:02:20;100729.44;;;-2.66;84.04
75538;BME280;64121;48.666;8.114;2023-03-01T03:04:45;100723.16;;;-2.66;84.07
75538;BME280;64121;48.666;8.114;2023-03-01T03:07:11;100718.72;;;-2.56;83.96
75538;BME280;64121;48.666;8.114;2023-03-01T03:09:36;100712.34;;;-2.61;83.56
75538;BME280;64121;48.666;8.114;2023-03-01T03:12:01;100719.91;;;-2.52;83.44
75538;BME280;64121;48.666;8.114;2023-03-01T03:14:27;100715.03;;;-2.50;83.36
75538;BME280;64121;48.666;8.114;2023-03-01T03:16:52;100713.28;;;-2.56;83.45
75538;BME280;64121;48.666;8.114;2023-03-01T03:19:19;100711.16;;;-2.54;83.52
75538;BME280;64121;48.666;8.114;2023-03-01T03:21:45;100711.16;;;-2.54;83.31
75538;BME280;64121;48.666;8.114;2023-03-01T03:24:10;100712.97;;;-2.59;83.33
75538;BME280;64121;48.666;8.114;2023-03-01T03:26:35;100708.78;;;-2.62;83.61
75538;BME280;64121;48.666;8.114;2023-03-01T03:29:01;100702.78;;;-2.64;83.70
75538;BME280;64121;48.666;8.114;2023-03-01T03:31:26;100709.03;;;-2.63;83.64
75538;BME280;64121;48.666;8.114;2023-03-01T03:33:52;100709.03;;;-2.63;84.46
75538;BME280;64121;48.666;8.114;2023-03-01T03:36:21;100708.63;;;-2.72;83.98
75538;BME280;64121;48.666;8.114;2023-03-01T03:38:46;100700.53;;;-2.67;84.30
75538;BME280;64121;48.666;8.114;2023-03-01T03:41:12;100707.50;;;-2.59;84.22
75538;BME280;64121;48.666;8.114;2023-03-01T03:43:39;100708.66;;;-2.55;83.97
75538;BME280;64121;48.666;8.114;2023-03-01T03:46:05;100699.25;;;-2.48;83.71
75538;BME280;64121;48.666;8.114;2023-03-01T03:48:32;100702.72;;;-2.52;84.05
75538;BME280;64121;48.666;8.114;2023-03-01T03:50:58;100705.53;;;-2.47;84.10
75538;BME280;64121;48.666;8.114;2023-03-01T03:53:26;100707.69;;;-2.49;83.55
75538;BME280;64121;48.666;8.114;2023-03-01T03:55:52;100700.63;;;-2.62;83.82
75538;BME280;64121;48.666;8.114;2023-03-01T03:58:18;100699.56;;;-2.61;84.26
75538;BME280;64121;48.666;8.114;2023-03-01T04:00:44;100696.25;;;-2.63;83.96
75538;BME280;64121;48.666;8.114;2023-03-01T04:03:11;100694.84;;;-2.65;84.12
75538;BME280;64121;48.666;8.114;2023-03-01T04:05:39;100693.09;;;-2.71;84.01
75538;BME280;64121;48.666;8.114;2023-03-01T04:08:04;100689.09;;;-2.81;84.61
75538;BME280;64121;48.666;8.114;2023-03-01T04:10:33;100691.13;;;-2.76;85.02
75538;BME280;64121;48.666;8.114;2023-03-01T04:12:59;100692.91;;;-2.82;84.85
75538;BME280;64121;48.666;8.114;2023-03-01T04:15:25;100668.97;;;-2.80;85.35
75538;BME280;64121;48.666;8.114;2023-03-01T04:17:52;100684.50;;;-2.80;85.79
75538;BME280;64121;48.666;8.114;2023-03-01T04:20:20;100675.41;;;-2.86;85.86
75538;BME280;64121;48.666;8.114;2023-03-01T04:22:45;100677.00;;;-2.73;85.47
75538;BME280;64121;48.666;8.114;2023-03-01T04:25:11;100684.03;;;-2.77;85.75
75538;BME280;64121;48.666;8.114;2023-03-01T04:27:37;100678.41;;;-2.70;85.20
75538;BME280;64121;48.666;8.114;2023-03-01T04:30:03;100681.31;;;-2.77;84.76
75538;BME280;64121;48.666;8.114;2023-03-01T04:32:29;100682.38;;;-2.78;85.23
75538;BME280;64121;48.666;8.114;2023-03-01T04:34:54;100677.25;;;-2.75;85.36
75538;BME280;64121;48.666;8.114;2023-03-01T04:37:19;100679.16;;;-2.75;84.79
75538;BME280;64121;48.666;8.114;2023-03-01T04:39:45;100679.19;;;-2.87;84.89
75538;BME280;64121;48.666;8.114;2023-03-01T04:42:10;100675.22;;;-2.96;85.29
75538;BME280;64121;48.666;8.114;2023-03-01T04:44:37;100672.75;;;-2.97;85.83
75538;BME280;64121;48.666;8.114;2023-03-01T04:47:02;100661.78;;;-2.86;85.79
75538;BME280;64121;48.666;8.114;2023-03-01T04:49:28;100666.66;;;-2.88;85.20
75538;BME280;64121;48.666;8.114;2023-03-01T04:51:53;100654.59;;;-2.92;85.39
75538;BME280;64121;48.666;8.114;2023-03-01T04:54:18;100675.81;;;-2.94;85.37
75538;BME280;64121;48.666;8.114;2023-03-01T04:56:44;100669.41;;;-2.99;85.12
75538;BME280;64121;48.666;8.114;2023-03-01T04:59:09;100666.34;;;-3.03;86.02
75538;BME280;64121;48.666;8.114;2023-03-01T05:01:36;100664.69;;;-3.04;85.58
75538;BME280;64121;48.666;8.114;2023-03-01T05:04:01;100663.06;;;-3.05;86.25
75538;BME280;64121;48.666;8.114;2023-03-01T05:06:26;100667.91;;;-3.07;86.56
75538;BME280;64121;48.666;8.114;2023-03-01T05:08:52;100669.22;;;-3.10;86.52
75538;BME280;64121;48.666;8.114;2023-03-01T05:11:17;100670.88;;;-3.09;86.36
75538;BME280;64121;48.666;8.114;2023-03-01T05:13:42;100670.72;;;-3.02;86.63
75538;BME280;64121;48.666;8.114;2023-03-01T05:16:08;100669.81;;;-3.08;86.31
75538;BME280;64121;48.666;8.114;2023-03-01T05:18:35;100662.72;;;-3.09;86.76
75538;BME280;64121;48.666;8.114;2023-03-01T05:21:03;100662.47;;;-3.07;86.62
75538;BME280;64121;48.666;8.114;2023-03-01T05:23:29;100661.44;;;-2.89;86.21
75538;BME280;64121;48.666;8.114;2023-03-01T05:25:57;100667.00;;;-2.84;86.29
75538;BME280;64121;48.666;8.114;2023-03-01T05:28:22;100661.75;;;-2.74;86.15
75538;BME280;64121;48.666;8.114;2023-03-01T05:30:48;100672.75;;;-2.81;85.43
75538;BME280;64121;48.666;8.114;2023-03-01T05:33:13;100667.56;;;-2.82;85.79
75538;BME280;64121;48.666;8.114;2023-03-01T05:35:41;100659.97;;;-2.80;86.07
75538;BME280;64121;48.666;8.114;2023-03-01T05:38:06;100662.00;;;-2.76;85.24
75538;BME280;64121;48.666;8.114;2023-03-01T05:40:33;100672.63;;;-2.74;85.46
75538;BME280;64121;48.666;8.114;2023-03-01T05:42:58;100658.19;;;-2.75;85.66
75538;BME280;64121;48.666;8.114;2023-03-01T05:45:25;100657.94;;;-2.73;85.45
75538;BME280;64121;48.666;8.114;2023-03-01T05:47:51;100654.97;;;-2.71;85.64
75538;BME280;64121;48.666;8.114;2023-03-01T05:50:18;100651.19;;;-2.70;85.80
75538;BME280;64121;48.666;8.114;2023-03-01T05:52:47;100655.22;;;-2.73;85.83
75538;BME280;64121;48.666;8.114;2023-03-01T05:55:12;100658.19;;;-2.75;85.65
75538;BME280;64121;48.666;8.114;2023-03-01T05:57:37;100653.81;;;-2.76;85.71
75538;BME280;64121;48.666;8.114;2023-03-01T06:00:03;100663.66;;;-2.75;85.67
75538;BME280;64121;48.666;8.114;2023-03-01T06:02:29;100673.72;;;-2.75;86.28
75538;BME280;64121;48.666;8.114;2023-03-01T06:04:54;100664.84;;;-2.82;85.90
75538;BME280;64121;48.666;8.114;2023-03-01T06:07:20;100668.75;;;-2.78;86.26
75538;BME280;64121;48.666;8.114;2023-03-01T06:09:46;100662.69;;;-2.80;86.30
75538;BME280;64121;48.666;8.114;2023-03-01T06:12:12;100671.22;;;-2.77;85.88
75538;BME280;64121;48.666;8.114;2023-03-01T06:14:37;100666.13;;;-2.73;85.84
75538;BME280;64121;48.666;8.114;2023-03-01T06:17:02;100668.25;;;-2.75;86.14
75538;BME280;64121;48.666;8.114;2023-03-01T06:19:28;100671.00;;;-2.75;85.97
75538;BME280;64121;48.666;8.114;2023-03-01T06:21:53;100672.47;;;-2.67;85.57
75538;BME280;64121;48.666;8.114;2023-03-01T06:24:18;100664.97;;;-2.77;86.17
75538;BME280;64121;48.666;8.114;2023-03-01T06:26:45;100675.13;;;-2.72;85.89
75538;BME280;64121;48.666;8.114;2023-03-01T06:29:10;100669.34;;;-2.76;86.05
75538;BME280;64121;48.666;8.114;2023-03-01T06:31:36;100670.75;;;-2.73;86.12
75538;BME280;64121;48.666;8.114;2023-03-01T06:34:01;100675.94;;;-2.72;86.23
75538;BME280;64121;48.666;8.114;2023-03-01T06:36:26;100665.38;;;-2.68;86.15
75538;BME280;64121;48.666;8.114;2023-03-01T06:38:52;100667.03;;;-2.67;86.02
75538;BME280;64121;48.666;8.114;2023-03-01T06:41:17;100672.81;;;-2.64;85.99
75538;BME280;64121;48.666;8.114;2023-03-01T06:43:44;100669.38;;;-2.59;85.12
75538;BME280;64121;48.666;8.114;2023-03-01T06:46:09;100666.72;;;-2.54;85.45
75538;BME280;64121;48.666;8.114;2023-03-01T06:48:35;100665.41;;;-2.52;85.09
75538;BME280;64121;48.666;8.114;2023-03-01T06:51:00;100660.22;;;-2.53;85.73
75538;BME280;64121;48.666;8.114;2023-03-01T06:53:26;100658.31;;;-2.53;85.65
75538;BME280;64121;48.666;8.114;2023-03-01T06:55:54;100649.97;;;-2.46;85.44
75538;BME280;64121;48.666;8.114;2023-03-01T06:58:19;100655.66;;;-2.48;85.47
75538;BME280;64121;48.666;8.114;2023-03-01T07:00:46;100656.09;;;-2.39;84.89
75538;BME280;64121;48.666;8.114;2023-03-01T07:03:11;100652.56;;;-2.39;84.81
75538;BME280;64121;48.666;8.114;2023-03-01T07:05:36;100655.53;;;-2.41;85.20
75538;BME280;64121;48.666;8.114;2023-03-01T07:08:02;100651.72;;;-2.40;85.03
75538;BME280;64121;48.666;8.114;2023-03-01T07:10:28;100641.47;;;-2.33;85.21
75538;BME280;64121;48.666;8.114;2023-03-01T07:12:55;100641.88;;;-2.24;84.59
75538;BME280;64121;48.666;8.114;2023-03-01T07:15:20;100638.75;;;-2.16;84.30
75538;BME280;64121;48.666;8.114;2023-03-01T07:17:47;100638.19;;;-2.18;84.51
75538;BME280;64121;48.666;8.114;2023-03-01T07:20:12;100633.69;;;-2.07;84.00
75538;BME280;64121;48.666;8.114;2023-03-01T07:22:39;100628.16;;;-1.96;83.56
75538;BME280;64121;48.666;8.114;2023-03-01T07:25:05;100628.72;;;-1.94;83.50
75538;BME280;64121;48.666;8.114;2023-03-01T07:27:30;100626.47;;;-1.80;82.92
75538;BME280;64121;48.666;8.114;2023-03-01T07:29:56;100621.34;;;-1.76;82.66
75538;BME280;64121;48.666;8.114;2023-03-01T07:32:21;100621.28;;;-1.60;82.66
75538;BME280;64121;48.666;8.114;2023-03-01T07:34:48;100627.56;;;-1.37;81.28
75538;BME280;64121;48.666;8.114;2023-03-01T07:37:13;100626.28;;;-1.52;81.70
75538;BME280;64121;48.666;8.114;2023-03-01T07:39:38;100615.25;;;-1.62;82.01
75538;BME280;64121;48.666;8.114;2023-03-01T07:42:04;100614.56;;;-1.52;82.16
75538;BME280;64121;48.666;8.114;2023-03-01T07:44:29;100623.25;;;-1.33;82.12
75538;BME280;64121;48.666;8.114;2023-03-01T07:46:54;100609.59;;;-1.33;81.42
75538;BME280;64121;48.666;8.114;2023-03-01T07:49:20;100610.41;;;-1.33;81.42
75538;BME280;64121;48.666;8.114;2023-03-01T07:51:46;100609.47;;;-1.22;81.36
75538;BME280;64121;48.666;8.114;2023-03-01T07:54:12;100604.88;;;-1.16;81.16
75538;BME280;64121;48.666;8.114;2023-03-01T07:56:37;100610.66;;;-1.12;80.85
75538;BME280;64121;48.666;8.114;2023-03-01T07:59:03;100612.38;;;-1.06;80.82
75538;BME280;64121;48.666;8.114;2023-03-01T08:01:28;100604.22;;;-1.01;80.59
75538;BME280;64121;48.666;8.114;2023-03-01T08:03:53;100605.47;;;-0.87;80.36
75538;BME280;64121;48.666;8.114;2023-03-01T08:06:19;100608.00;;;-0.80;79.63
75538;BME280;64121;48.666;8.114;2023-03-01T08:08:46;100607.72;;;-0.79;79.70
75538;BME280;64121;48.666;8.114;2023-03-01T08:11:13;100606.47;;;-0.71;79.28
75538;BME280;64121;48.666;8.114;2023-03-01T08:13:38;100609.13;;;-0.76;78.95
75538;BME280;64121;48.666;8.114;2023-03-01T08:16:06;100604.28;;;-0.69;78.89
75538;BME280;64121;48.666;8.114;2023-03-01T08:18:32;100617.59;;;-0.46;78.42
75538;BME280;64121;48.666;8.114;2023-03-01T08:21:01;100600.28;;;-0.24;78.17
75538;BME280;64121;48.666;8.114;2023-03-01T08:23:27;100605.44;;;0.09;76.63
75538;BME280;64121;48.666;8.114;2023-03-01T08:25:53;100610.09;;;0.09;75.64
75538;BME280;64121;48.666;8.114;2023-03-01T08:28:19;100612.66;;;0.25;75.62
75538;BME280;64121;48.666;8.114;2023-03-01T08:30:44;100606.53;;;0.13;75.20
75538;BME280;64121;48.666;8.114;2023-03-01T08:33:09;100609.81;;;0.10;75.21
75538;BME280;64121;48.666;8.114;2023-03-01T08:35:35;100599.25;;;0.29;74.17
75538;BME280;64121;48.666;8.114;2023-03-01T08:38:00;100609.19;;;0.45;74.21
75538;BME280;64121;48.666;8.114;2023-03-01T08:40:25;100598.09;;;0.77;72.81
75538;BME280;64121;48.666;8.114;2023-03-01T08:42:52;100608.47;;;0.70;72.74
75538;BME280;64121;48.666;8.114;2023-03-01T08:45:17;100603.63;;;1.03;71.95
75538;BME280;64121;48.666;8.114;2023-03-01T08:47:43;100601.75;;;1.29;71.01
75538;BME280;64121;48.666;8.114;2023-03-01T08:50:09;100584.53;;;1.33;70.82
75538;BME280;64121;48.666;8.114;2023-03-01T08:52:35;100585.88;;;1.31;69.81
75538;BME280;64121;48.666;8.114;2023-03-01T08:55:00;100580.09;;;1.17;70.42
75538;BME280;64121;48.666;8.114;2023-03-01T08:57:25;100587.25;;;1.38;70.41
75538;BME280;64121;48.666;8.114;2023-03-01T08:59:52;100571.91;;;1.68;69.49
75538;BME280;64121;48.666;8.114;2023-03-01T09:02:18;100569.44;;;1.41;69.39
75538;BME280;64121;48.666;8.114;2023-03-01T09:04:43;100573.53;;;1.59;69.93
75538;BME280;64121;48.666;8.114;2023-03-01T09:07:09;100573.00;;;1.77;68.74
75538;BME280;64121;48.666;8.114;2023-03-01T09:09:35;100571.31;;;1.81;68.38
75538;BME280;64121;48.666;8.114;2023-03-01T09:12:02;100567.72;;;2.11;67.83
75538;BME280;64121;48.666;8.114;2023-03-01T09:14:27;100559.19;;;2.12;68.47
75538;BME280;64121;48.666;8.114;2023-03-01T09:16:54;100552.06;;;2.11;66.96
75538;BME280;64121;48.666;8.114;2023-03-01T09:19:19;100550.28;;;2.51;67.82
75538;BME280;64121;48.666;8.114;2023-03-01T09:21:45;100541.88;;;2.17;66.86
75538;BME280;64121;48.666;8.114;2023-03-01T09:24:13;100555.59;;;2.27;67.03
75538;BME280;64121;48.666;8.114;2023-03-01T09:26:38;100551.72;;;2.33;66.77
75538;BME280;64121;48.666;8.114;2023-03-01T09:29:04;100534.97;;;2.35;65.99
75538;BME280;64121;48.666;8.114;2023-03-01T09:31:29;100537.69;;;2.40;66.53
75538;BME280;64121;48.666;8.114;2023-03-01T09:33:56;100532.66;;;2.57;65.39
75538;BME280;64121;48.666;8.114;2023-03-01T09:36:23;100538.97;;;2.58;65.24
75538;BME280;64121;48.666;8.114;2023-03-01T09:38:49;100531.56;;;2.58;65.89
75538;BME280;64121;48.666;8.114;2023-03-01T09:41:26;100537.44;;;2.91;64.16
75538;BME280;64121;48.666;8.114;2023-03-01T09:43:59;100532.78;;;2.86;65.20
75538;BME280;64121;48.666;8.114;2023-03-01T09:46:27;100538.28;;;3.25;64.40
75538;BME280;64121;48.666;8.114;2023-03-01T09:48:57;100530.63;;;3.22;63.75
75538;BME280;64121;48.666;8.114;2023-03-01T09:51:27;100526.28;;;3.16;63.78
75538;BME280;64121;48.666;8.114;2023-03-01T09:53:55;100525.69;;;3.19;63.67
75538;BME280;64121;48.666;8.114;2023-03-01T09:56:22;100527.19;;;3.01;63.66
75538;BME280;64121;48.666;8.114;2023-03-01T09:58:54;100523.53;;;3.16;63.38
75538;BME280;64121;48.666;8.114;2023-03-01T10:01:29;100514.28;;;3.36;63.00
75538;BME280;64121;48.666;8.114;2023-03-01T10:04:05;100521.28;;;3.52;63.19
75538;BME280;64121;48.666;8.114;2023-03-01T10:06:33;100518.59;;;3.47;61.93
75538;BME280;64121;48.666;8.114;2023-03-01T10:09:02;100506.47;;;3.48;62.32
75538;BME280;64121;48.666;8.114;2023-03-01T10:11:32;100508.09;;;3.49;62.45
75538;BME280;64121;48.666;8.114;2023-03-01T10:14:01;100515.47;;;3.59;61.43
75538;BME280;64121;48.666;8.114;2023-03-01T10:16:35;100499.72;;;3.93;61.66
75538;BME280;64121;48.666;8.114;2023-03-01T10:19:05;100504.63;;;4.20;60.40
75538;BME280;64121;48.666;8.114;2023-03-01T10:21:31;100511.41;;;4.52;60.22
75538;BME280;64121;48.666;8.114;2023-03-01T10:24:11;100507.19;;;4.36;60.20
75538;BME280;64121;48.666;8.114;2023-03-01T10:26:44;100499.19;;;4.77;60.11
75538;BME280;64121;48.666;8.114;2023-03-01T10:29:12;100504.94;;;4.38;59.35
75538;BME280;64121;48.666;8.114;2023-03-01T10:31:41;100500.97;;;4.49;59.36
75538;BME280;64121;48.666;8.114;2023-03-01T10:34:14;100503.72;;;4.25;59.24
75538;BME280;64121;48.666;8.114;2023-03-01T10:36:42;100498.97;;;4.07;59.67
75538;BME280;64121;48.666;8.114;2023-03-01T10:39:13;100501.31;;;4.42;59.63
75538;BME280;64121;48.666;8.114;2023-03-01T10:41:52;100486.75;;;4.18;59.00
75538;BME280;64121;48.666;8.114;2023-03-01T10:44:42;100485.34;;;4.20;59.14
75538;BME280;64121;48.666;8.114;2023-03-01T10:47:14;100483.59;;;4.30;59.35
75538;BME280;64121;48.666;8.114;2023-03-01T10:49:51;100486.63;;;4.28;59.20
75538;BME280;64121;48.666;8.114;2023-03-01T10:52:20;100482.25;;;4.46;59.57
75538;BME280;64121;48.666;8.114;2023-03-01T10:54:52;100468.34;;;4.75;58.03
75538;BME280;64121;48.666;8.114;2023-03-01T10:57:28;100484.81;;;4.80;57.35
75538;BME280;64121;48.666;8.114;2023-03-01T11:00:02;100477.44;;;4.56;58.14
75538;BME280;64121;48.666;8.114;2023-03-01T11:02:29;100481.44;;;4.83;57.13
75538;BME280;64121;48.666;8.114;2023-03-01T11:05:01;100476.19;;;4.86;57.69
75538;BME280;64121;48.666;8.114;2023-03-01T11:07:27;100467.06;;;5.05;57.24
75538;BME280;64121;48.666;8.114;2023-03-01T11:09:54;100467.75;;;4.78;57.56
75538;BME280;64121;48.666;8.114;2023-03-01T11:12:20;100453.16;;;4.77;57.74
75538;BME280;64121;48.666;8.114;2023-03-01T11:14:47;100453.16;;;4.77;57.74
75538;BME280;64121;48.666;8.114;2023-03-01T11:17:15;100451.56;;;5.09;57.83
75538;BME280;64121;48.666;8.114;2023-03-01T11:19:42;100444.09;;;5.42;56.16
75538;BME280;64121;48.666;8.114;2023-03-01T11:22:12;100443.94;;;5.01;56.02
75538;BME280;64121;48.666;8.114;2023-03-01T11:24:40;100431.97;;;4.92;56.58
75538;BME280;64121;48.666;8.114;2023-03-01T11:27:16;100436.50;;;5.34;55.41
75538;BME280;64121;48.666;8.114;2023-03-01T11:29:44;100430.03;;;4.92;56.87
75538;BME280;64121;48.666;8.114;2023-03-01T11:32:13;100426.78;;;5.36;56.78
75538;BME280;64121;48.666;8.114;2023-03-01T11:34:42;100412.59;;;5.29;56.24
75538;BME280;64121;48.666;8.114;2023-03-01T11:37:21;100409.97;;;5.52;56.40
75538;BME280;64121;48.666;8.114;2023-03-01T11:39:52;100402.78;;;5.97;55.80
75538;BME280;64121;48.666;8.114;2023-03-01T11:42:22;100400.66;;;5.47;55.06
75538;BME280;64121;48.666;8.114;2023-03-01T11:44:55;100385.97;;;5.80;55.39
75538;BME280;64121;48.666;8.114;2023-03-01T11:47:33;100391.78;;;5.64;54.90
75538;BME280;64121;48.666;8.114;2023-03-01T11:50:17;100385.13;;;5.52;55.06
75538;BME280;64121;48.666;8.114;2023-03-01T11:52:55;100386.34;;;5.73;55.16
75538;BME280;64121;48.666;8.114;2023-03-01T11:55:49;100376.13;;;5.73;54.66
75538;BME280;64121;48.666;8.114;2023-03-01T11:58:27;100379.94;;;6.19;54.70
75538;BME280;64121;48.666;8.114;2023-03-01T12:01:06;100374.09;;;6.20;54.37
75538;BME280;64121;48.666;8.114;2023-03-01T12:03:41;100365.03;;;6.28;53.35
75538;BME280;64121;48.666;8.114;2023-03-01T12:09:12;100371.66;;;5.91;53.83
75538;BME280;64121;48.666;8.114;2023-03-01T12:11:52;100359.19;;;5.94;53.91
75538;BME280;64121;48.666;8.114;2023-03-01T12:14:47;100351.69;;;6.08;53.60
75538;BME280;64121;48.666;8.114;2023-03-01T12:17:35;100350.81;;;6.35;53.87
75538;BME280;64121;48.666;8.114;2023-03-01T12:20:14;100348.31;;;6.47;53.54
75538;BME280;64121;48.666;8.114;2023-03-01T12:22:50;100334.53;;;6.70;53.81
75538;BME280;64121;48.666;8.114;2023-03-01T12:25:26;100337.03;;;6.57;52.63
75538;BME280;64121;48.666;8.114;2023-03-01T12:28:07;100324.38;;;6.43;53.38
75538;BME280;64121;48.666;8.114;2023-03-01T12:30:45;100323.50;;;6.56;53.45
75538;BME280;64121;48.666;8.114;2023-03-01T12:33:22;100320.56;;;6.52;52.78
75538;BME280;64121;48.666;8.114;2023-03-01T12:36:12;100317.91;;;6.47;52.54
75538;BME280;64121;48.666;8.114;2023-03-01T12:38:49;100311.38;;;6.43;52.01
75538;BME280;64121;48.666;8.114;2023-03-01T12:41:28;100309.56;;;6.61;52.81
75538;BME280;64121;48.666;8.114;2023-03-01T12:44:04;100299.00;;;6.41;53.61
75538;BME280;64121;48.666;8.114;2023-03-01T12:46:46;100296.41;;;6.44;52.71
75538;BME280;64121;48.666;8.114;2023-03-01T12:49:16;100292.50;;;6.67;52.38
75538;BME280;64121;48.666;8.114;2023-03-01T12:51:45;100298.25;;;6.49;52.40
75538;BME280;64121;48.666;8.114;2023-03-01T12:54:16;100291.91;;;6.48;53.08
75538;BME280;64121;48.666;8.114;2023-03-01T12:56:43;100300.13;;;6.62;52.37
75538;BME280;64121;48.666;8.114;2023-03-01T12:59:15;100291.38;;;6.68;51.88
75538;BME280;64121;48.666;8.114;2023-03-01T13:01:47;100283.34;;;6.58;51.86
75538;BME280;64121;48.666;8.114;2023-03-01T13:04:24;100293.78;;;6.39;52.57